Time;durP1;ratioP1;P1;durP2;ratioP2;P2;SDS_P1;SDS_P2;PMS_P1;PMS_P2;Temp;Humidity;BMP_temperature;BMP_pressure;BME280_temperature;BME280_humidity;BME280_pressure;Samples;Min_cycle;Max_cycle;Signal;HPM_P1;HPM_P2
2023/12/03 00:00:12;;;;;;;;;;;;;;;-1.66;100.00;100845.03;5062166;28;19925;-68
2023/12/03 00:02:42;;;;;;;;;;;;;;;-1.64;100.00;100853.69;5058319;28;19931;-67
2023/12/03 00:05:11;;;;;;;;;;;;;;;-1.71;100.00;100854.47;5052145;28;20038;-68
2023/12/03 00:07:41;;;;;;;;;;;;;;;-1.67;100.00;100845.88;5054792;28;19927;-68
2023/12/03 00:10:09;;;;;;;;;;;;;;;-1.73;100.00;100838.03;5059297;28;19931;-68
2023/12/03 00:12:40;;;;;;;;;;;;;;;-1.79;100.00;100844.03;5061556;28;20344;-67
2023/12/03 00:15:08;;;;;;;;;;;;;;;-1.80;100.00;100853.56;5049704;28;19924;-68
2023/12/03 00:17:37;;;;;;;;;;;;;;;-1.78;100.00;100857.03;5056166;28;20058;-68
2023/12/03 00:20:07;;;;;;;;;;;;;;;-1.82;100.00;100856.97;5055404;28;19920;-67
2023/12/03 00:22:35;;;;;;;;;;;;;;;-1.88;100.00;100860.38;5063019;28;20381;-68
2023/12/03 00:25:07;;;;;;;;;;;;;;;-1.94;100.00;100849.94;5048012;28;19921;-69
2023/12/03 00:27:35;;;;;;;;;;;;;;;-1.94;100.00;100854.25;5056702;28;19924;-68
2023/12/03 00:30:03;;;;;;;;;;;;;;;-1.93;100.00;100862.06;5062295;28;20670;-67
2023/12/03 00:32:34;;;;;;;;;;;;;;;-1.94;100.00;100862.03;5063481;28;19920;-68
2023/12/03 00:35:07;;;;;;;;;;;;;;;-1.97;100.00;100870.66;5054859;28;19934;-67
2023/12/03 00:37:35;;;;;;;;;;;;;;;-1.94;100.00;100868.09;5063541;28;19936;-68
2023/12/03 00:40:08;;;;;;;;;;;;;;;-1.95;100.00;100863.78;5061508;28;19936;-69
2023/12/03 00:42:36;;;;;;;;;;;;;;;-1.89;100.00;100878.53;5052541;28;20703;-67
2023/12/03 00:45:04;;;;;;;;;;;;;;;-1.95;100.00;100879.34;5048580;28;19924;-66
2023/12/03 00:47:32;;;;;;;;;;;;;;;-1.95;100.00;100881.06;5061279;28;20365;-68
2023/12/03 00:50:01;;;;;;;;;;;;;;;-1.92;100.00;100876.78;5061761;28;20030;-67
2023/12/03 00:52:30;;;;;;;;;;;;;;;-1.85;100.00;100880.31;5059277;28;20435;-67
2023/12/03 00:54:58;;;;;;;;;;;;;;;-1.86;100.00;100884.63;5057153;28;19929;-67
2023/12/03 00:57:26;;;;;;;;;;;;;;;-1.85;100.00;100878.56;5068531;28;19920;-67
2023/12/03 00:59:54;;;;;;;;;;;;;;;-1.87;100.00;100884.59;5057016;28;20019;-68
2023/12/03 01:02:22;;;;;;;;;;;;;;;-1.96;100.00;100880.19;5057225;28;19939;-68
2023/12/03 01:04:49;;;;;;;;;;;;;;;-2.00;100.00;100883.59;5044020;28;20000;-66
2023/12/03 01:07:17;;;;;;;;;;;;;;;-2.04;100.00;100884.41;5064272;28;19920;-70
2023/12/03 01:09:46;;;;;;;;;;;;;;;-2.05;100.00;100884.41;5063039;28;19964;-67
2023/12/03 01:12:13;;;;;;;;;;;;;;;-2.05;100.00;100887.00;5062451;28;19925;-68
2023/12/03 01:14:41;;;;;;;;;;;;;;;-2.02;100.00;100887.91;5073251;28;19931;-67
2023/12/03 01:17:15;;;;;;;;;;;;;;;-1.97;100.00;100895.75;5054357;28;19920;-69
2023/12/03 01:19:44;;;;;;;;;;;;;;;-1.97;100.00;100898.34;5075125;28;19924;-67
2023/12/03 01:22:12;;;;;;;;;;;;;;;-2.06;100.00;100900.84;5067097;28;19921;-67
2023/12/03 01:24:40;;;;;;;;;;;;;;;-2.27;100.00;100902.31;5059743;28;19928;-67
2023/12/03 01:27:10;;;;;;;;;;;;;;;-2.33;100.00;100909.13;5063890;28;20654;-67
2023/12/03 01:29:39;;;;;;;;;;;;;;;-2.22;100.00;100917.94;5059961;28;19924;-67
2023/12/03 01:32:07;;;;;;;;;;;;;;;-2.14;100.00;100917.16;5061708;28;19924;-68
2023/12/03 01:34:35;;;;;;;;;;;;;;;-2.20;100.00;100903.22;5058639;28;19932;-69
2023/12/03 01:37:04;;;;;;;;;;;;;;;-2.06;100.00;100919.88;5053038;28;19955;-67
2023/12/03 01:39:32;;;;;;;;;;;;;;;-2.13;100.00;100929.28;5065101;28;19982;-67
2023/12/03 01:42:04;;;;;;;;;;;;;;;-2.20;100.00;100940.44;5061614;28;19925;-68
2023/12/03 01:44:33;;;;;;;;;;;;;;;-2.29;100.00;100942.03;5057952;28;19924;-69
2023/12/03 01:47:04;;;;;;;;;;;;;;;-2.40;100.00;100943.63;5065999;28;20373;-67
2023/12/03 01:49:33;;;;;;;;;;;;;;;-2.41;100.00;100944.47;5067096;28;19927;-67
2023/12/03 01:52:04;;;;;;;;;;;;;;;-2.30;100.00;100942.88;5061259;28;19964;-68
2023/12/03 01:54:34;;;;;;;;;;;;;;;-2.27;100.00;100938.63;5044240;28;20035;-66
2023/12/03 01:57:02;;;;;;;;;;;;;;;-2.22;100.00;100936.09;5061577;28;20631;-67
2023/12/03 01:59:34;;;;;;;;;;;;;;;-2.15;100.00;100936.19;5071511;28;20484;-67
2023/12/03 02:02:03;;;;;;;;;;;;;;;-2.07;100.00;100938.88;5055695;28;19963;-67
2023/12/03 02:04:31;;;;;;;;;;;;;;;-2.02;100.00;100936.31;5064022;28;19935;-68
2023/12/03 02:07:01;;;;;;;;;;;;;;;-1.97;100.00;100932.94;5055190;28;20371;-68
2023/12/03 02:09:29;;;;;;;;;;;;;;;-1.93;100.00;100934.72;5065206;28;20685;-67
2023/12/03 02:11:57;;;;;;;;;;;;;;;-1.89;100.00;100933.91;5059195;28;19920;-67
2023/12/03 02:14:26;;;;;;;;;;;;;;;-1.90;100.00;100932.19;5065216;28;19935;-66
2023/12/03 02:16:55;;;;;;;;;;;;;;;-1.98;100.00;100940.72;5065059;28;19936;-67
2023/12/03 02:19:23;;;;;;;;;;;;;;;-2.22;100.00;100957.72;5061142;28;19928;-67
2023/12/03 02:21:51;;;;;;;;;;;;;;;-2.40;100.00;100956.59;5057068;28;20380;-70
2023/12/03 02:24:21;;;;;;;;;;;;;;;-2.43;100.00;100953.94;5043559;28;19929;-66
2023/12/03 02:26:49;;;;;;;;;;;;;;;-2.40;100.00;100952.28;5059149;28;19928;-68
2023/12/03 02:29:17;;;;;;;;;;;;;;;-2.47;100.00;100950.41;5080594;28;19920;-68
2023/12/03 02:31:45;;;;;;;;;;;;;;;-2.48;100.00;100943.50;5053945;28;19955;-68
2023/12/03 02:34:14;;;;;;;;;;;;;;;-2.54;100.00;100941.69;5061019;28;19967;-68
2023/12/03 02:36:43;;;;;;;;;;;;;;;-2.48;100.00;100943.50;5060480;28;19931;-68
2023/12/03 02:39:10;;;;;;;;;;;;;;;-2.49;100.00;100941.75;5090704;28;19962;-69
2023/12/03 02:41:40;;;;;;;;;;;;;;;-2.37;100.00;100941.06;5054309;28;19936;-67
2023/12/03 02:44:08;;;;;;;;;;;;;;;-2.35;100.00;100939.34;5062685;28;19920;-68
2023/12/03 02:46:37;;;;;;;;;;;;;;;-2.43;100.00;100944.44;5064759;28;19934;-68
2023/12/03 02:49:05;;;;;;;;;;;;;;;-2.45;100.00;100947.84;5065746;28;20369;-68
2023/12/03 02:51:33;;;;;;;;;;;;;;;-2.42;100.00;100942.72;5059026;28;20070;-67
2023/12/03 02:54:01;;;;;;;;;;;;;;;-2.45;100.00;100938.34;5062606;28;19970;-68
2023/12/03 02:56:29;;;;;;;;;;;;;;;-2.45;100.00;100951.31;5045030;28;20380;-68
2023/12/03 02:58:58;;;;;;;;;;;;;;;-2.39;100.00;100942.78;5062806;28;19970;-68
2023/12/03 03:01:28;;;;;;;;;;;;;;;-2.27;100.00;100945.53;5055192;28;19990;-68
2023/12/03 03:03:56;;;;;;;;;;;;;;;-2.20;100.00;100944.75;5060708;28;20451;-67
2023/12/03 03:06:24;;;;;;;;;;;;;;;-2.15;100.00;100953.47;5093552;28;19928;-68
2023/12/03 03:08:53;;;;;;;;;;;;;;;-2.21;100.00;100962.06;5064152;28;20422;-67
2023/12/03 03:11:20;;;;;;;;;;;;;;;-2.32;100.00;100953.25;5052640;28;19928;-70
2023/12/03 03:13:48;;;;;;;;;;;;;;;-2.37;100.00;100956.63;5062257;28;20340;-68
2023/12/03 03:16:17;;;;;;;;;;;;;;;-2.37;100.00;100956.63;5065741;28;19978;-67
2023/12/03 03:18:45;;;;;;;;;;;;;;;-2.26;100.00;100961.13;5062725;28;19928;-68
2023/12/03 03:21:13;;;;;;;;;;;;;;;-2.21;100.00;100954.28;5070757;28;19966;-67
2023/12/03 03:23:41;;;;;;;;;;;;;;;-2.09;100.00;100969.13;5079232;28;20358;-67
2023/12/03 03:26:09;;;;;;;;;;;;;;;-2.02;100.00;100960.56;5067193;28;19927;-67
2023/12/03 03:28:38;;;;;;;;;;;;;;;-2.00;100.00;100963.19;5067319;28;19929;-67
2023/12/03 03:31:07;;;;;;;;;;;;;;;-2.09;100.00;100968.25;5050501;28;19992;-68
2023/12/03 03:33:36;;;;;;;;;;;;;;;-2.23;100.00;100958.56;5062728;28;20005;-68
2023/12/03 03:36:04;;;;;;;;;;;;;;;-2.28;100.00;100962.81;5064672;28;19930;-68
2023/12/03 03:38:32;;;;;;;;;;;;;;;-2.26;100.00;100965.44;5065925;28;19924;-68
2023/12/03 03:40:59;;;;;;;;;;;;;;;-2.23;100.00;100961.16;5063764;28;19924;-68
2023/12/03 03:43:27;;;;;;;;;;;;;;;-2.31;100.00;100944.59;5064888;28;19931;-67
2023/12/03 03:45:55;;;;;;;;;;;;;;;-2.14;100.00;100970.78;5080919;28;20472;-66
2023/12/03 03:48:22;;;;;;;;;;;;;;;-2.09;100.00;100982.09;5063383;28;20357;-68
2023/12/03 03:50:51;;;;;;;;;;;;;;;-2.09;100.00;100982.09;5060445;28;19929;-67
2023/12/03 03:53:19;;;;;;;;;;;;;;;-2.05;100.00;100989.09;5066162;28;19963;-67
2023/12/03 03:55:49;;;;;;;;;;;;;;;-2.05;100.00;100990.81;5061787;28;20277;-68
2023/12/03 03:58:17;;;;;;;;;;;;;;;-2.16;100.00;100991.50;5058932;28;19929;-67
2023/12/03 04:00:45;;;;;;;;;;;;;;;-2.23;100.00;100991.41;5061163;28;19931;-67
2023/12/03 04:03:13;;;;;;;;;;;;;;;-2.29;100.00;100996.50;5072218;28;19932;-69
2023/12/03 04:05:42;;;;;;;;;;;;;;;-2.31;100.00;100993.88;5057750;28;19924;-67
2023/12/03 04:08:11;;;;;;;;;;;;;;;-2.36;100.00;100989.50;5061321;28;19928;-67
2023/12/03 04:10:39;;;;;;;;;;;;;;;-2.25;100.00;100990.53;5059190;28;19925;-67
2023/12/03 04:13:07;;;;;;;;;;;;;;;-2.18;100.00;100990.63;5053036;28;19924;-66
2023/12/03 04:15:35;;;;;;;;;;;;;;;-2.20;100.00;100992.31;5056799;28;19928;-67
2023/12/03 04:18:02;;;;;;;;;;;;;;;-2.33;100.00;101000.78;5058583;28;19928;-68
2023/12/03 04:20:30;;;;;;;;;;;;;;;-2.26;100.00;100991.38;5087315;28;20305;-66
2023/12/03 04:22:58;;;;;;;;;;;;;;;-2.16;100.00;100994.09;5054192;28;19928;-67
2023/12/03 04:25:30;;;;;;;;;;;;;;;-2.12;100.00;100995.91;5057050;28;19928;-67
2023/12/03 04:27:58;;;;;;;;;;;;;;;-2.08;100.00;101002.00;5076982;28;19936;-67
2023/12/03 04:30:26;;;;;;;;;;;;;;;-2.05;100.00;101001.19;5058425;28;20596;-68
2023/12/03 04:32:53;;;;;;;;;;;;;;;-2.06;100.00;100997.72;5057077;28;19928;-67
2023/12/03 04:35:22;;;;;;;;;;;;;;;-2.18;100.00;101000.13;5076286;28;20875;-67
2023/12/03 04:37:50;;;;;;;;;;;;;;;-2.23;100.00;101004.38;5062085;28;19925;-67
2023/12/03 04:40:18;;;;;;;;;;;;;;;-2.18;100.00;101002.72;5059842;28;20364;-67
2023/12/03 04:42:47;;;;;;;;;;;;;;;-2.19;100.00;101003.56;5057698;28;19924;-67
2023/12/03 04:45:14;;;;;;;;;;;;;;;-2.21;100.00;101013.06;5061664;28;19928;-68
2023/12/03 04:47:42;;;;;;;;;;;;;;;-2.18;100.00;101008.78;5058759;28;19936;-67
2023/12/03 04:50:11;;;;;;;;;;;;;;;-2.21;100.00;101019.13;5060751;28;20011;-67
2023/12/03 04:52:39;;;;;;;;;;;;;;;-2.13;100.00;101022.69;5057150;28;19924;-67
2023/12/03 04:55:07;;;;;;;;;;;;;;;-2.17;100.00;101020.91;5059690;28;19921;-69
2023/12/03 04:57:35;;;;;;;;;;;;;;;-2.13;100.00;101030.47;5059463;28;19927;-66
2023/12/03 05:00:07;;;;;;;;;;;;;;;-2.09;100.00;101020.16;5053218;28;19956;-67
2023/12/03 05:02:36;;;;;;;;;;;;;;;-2.08;100.00;101022.78;5054433;28;19920;-67
2023/12/03 05:05:05;;;;;;;;;;;;;;;-2.12;100.00;101024.44;5061705;28;19921;-66
2023/12/03 05:07:33;;;;;;;;;;;;;;;-2.16;100.00;101029.56;5059676;28;20001;-67
2023/12/03 05:10:04;;;;;;;;;;;;;;;-2.20;100.00;101017.38;5052976;28;19939;-67
2023/12/03 05:12:32;;;;;;;;;;;;;;;-2.14;100.00;101033.06;5052622;28;19932;-67
2023/12/03 05:15:00;;;;;;;;;;;;;;;-2.32;100.00;101027.59;5045818;28;19928;-67
2023/12/03 05:17:29;;;;;;;;;;;;;;;-2.46;100.00;101029.97;5061005;28;19932;-67
2023/12/03 05:19:58;;;;;;;;;;;;;;;-2.49;100.00;101029.91;5061581;28;19928;-67
2023/12/03 05:22:26;;;;;;;;;;;;;;;-2.46;100.00;101027.38;5037291;28;20402;-67
2023/12/03 05:24:56;;;;;;;;;;;;;;;-2.39;100.00;101030.94;5062629;28;19920;-68
2023/12/03 05:27:24;;;;;;;;;;;;;;;-2.45;100.00;101034.31;5062654;28;19966;-68
2023/12/03 05:29:51;;;;;;;;;;;;;;;-2.55;100.00;101038.50;5061834;28;19931;-68
2023/12/03 05:32:19;;;;;;;;;;;;;;;-2.51;100.00;101037.66;5061076;28;19936;-68
2023/12/03 05:34:48;;;;;;;;;;;;;;;-2.50;100.00;101038.53;5064318;28;19920;-67
2023/12/03 05:37:18;;;;;;;;;;;;;;;-2.53;100.00;101041.09;5058474;28;19925;-67
2023/12/03 05:39:46;;;;;;;;;;;;;;;-2.47;100.00;101042.06;5062063;28;19932;-67
2023/12/03 05:42:14;;;;;;;;;;;;;;;-2.46;100.00;101045.53;5057338;28;19925;-67
2023/12/03 05:44:41;;;;;;;;;;;;;;;-2.50;100.00;101044.59;5056582;28;19947;-67
2023/12/03 05:47:12;;;;;;;;;;;;;;;-2.56;100.00;101051.44;5056094;28;20229;-67
2023/12/03 05:49:40;;;;;;;;;;;;;;;-2.59;100.00;101056.56;5073635;28;19935;-67
2023/12/03 05:52:09;;;;;;;;;;;;;;;-2.67;100.00;101060.72;5054716;28;20312;-67
2023/12/03 05:54:39;;;;;;;;;;;;;;;-2.76;100.00;101060.56;5059798;28;19928;-68
2023/12/03 05:57:07;;;;;;;;;;;;;;;-2.82;100.00;101064.78;5070120;28;19974;-66
2023/12/03 05:59:34;;;;;;;;;;;;;;;-2.86;100.00;101064.72;5061920;28;19952;-68
2023/12/03 06:02:02;;;;;;;;;;;;;;;-2.82;100.00;101067.38;5057434;28;19978;-69
2023/12/03 06:04:33;;;;;;;;;;;;;;;-2.91;100.00;101064.63;5061202;28;19932;-67
2023/12/03 06:07:01;;;;;;;;;;;;;;;-3.00;100.00;101073.97;5068371;28;19928;-67
2023/12/03 06:09:31;;;;;;;;;;;;;;;-3.02;100.00;101079.13;5064242;28;19924;-67
2023/12/03 06:11:58;;;;;;;;;;;;;;;-2.95;100.00;101067.13;5087806;28;20031;-67
2023/12/03 06:14:29;;;;;;;;;;;;;;;-2.84;100.00;101069.09;5057559;28;19939;-68
2023/12/03 06:16:56;;;;;;;;;;;;;;;-2.73;100.00;101066.69;5058916;28;19928;-68
2023/12/03 06:19:24;;;;;;;;;;;;;;;-2.68;100.00;101061.59;5062798;28;19929;-68
2023/12/03 06:21:52;;;;;;;;;;;;;;;-2.66;100.00;101065.94;5059781;28;19974;-66
2023/12/03 06:24:20;;;;;;;;;;;;;;;-2.67;100.00;101071.97;5054808;28;19936;-69
2023/12/03 06:26:49;;;;;;;;;;;;;;;-2.70;100.00;101061.56;5061289;28;19924;-67
2023/12/03 06:29:18;;;;;;;;;;;;;;;-2.69;100.00;101065.03;5060040;28;19924;-67
2023/12/03 06:31:46;;;;;;;;;;;;;;;-2.69;100.00;101059.84;5063366;28;19995;-67
2023/12/03 06:34:13;;;;;;;;;;;;;;;-2.66;100.00;101073.72;5058442;28;19924;-66
2023/12/03 06:36:43;;;;;;;;;;;;;;;-2.68;100.00;101075.44;5059742;28;19924;-68
2023/12/03 06:39:11;;;;;;;;;;;;;;;-2.68;100.00;101079.75;5059147;28;19925;-67
2023/12/03 06:41:43;;;;;;;;;;;;;;;-2.72;100.00;101080.53;5055825;28;19956;-67
2023/12/03 06:44:12;;;;;;;;;;;;;;;-2.72;100.00;101084.00;5053366;28;20277;-68
2023/12/03 06:46:40;;;;;;;;;;;;;;;-2.67;100.00;101084.03;5087424;28;19924;-68
2023/12/03 06:49:08;;;;;;;;;;;;;;;-2.63;100.00;101083.25;5058537;28;20473;-67
2023/12/03 06:51:36;;;;;;;;;;;;;;;-2.60;100.00;101093.69;5059083;28;20011;-66
2023/12/03 06:54:07;;;;;;;;;;;;;;;-2.62;100.00;101090.19;5055989;28;19924;-67
2023/12/03 06:56:36;;;;;;;;;;;;;;;-2.69;100.00;101097.00;5045787;28;19952;-68
2023/12/03 06:59:04;;;;;;;;;;;;;;;-2.75;100.00;101096.00;5061868;28;19986;-68
2023/12/03 07:01:33;;;;;;;;;;;;;;;-2.74;100.00;101090.88;5062599;28;19952;-68
2023/12/03 07:04:05;;;;;;;;;;;;;;;-2.84;100.00;101097.63;5063109;28;19959;-68
2023/12/03 07:06:32;;;;;;;;;;;;;;;-2.87;100.00;101099.25;5063535;28;19931;-67
2023/12/03 07:09:00;;;;;;;;;;;;;;;-2.93;100.00;101100.00;5060866;28;19924;-68
2023/12/03 07:11:48;;;;;;;;;;;;;;;-2.92;100.00;101100.88;5061454;28;20388;-68
2023/12/03 07:14:15;;;;;;;;;;;;;;;-2.85;100.00;101118.31;5054655;28;19927;-67
2023/12/03 07:16:47;;;;;;;;;;;;;;;-2.86;100.00;101116.56;5056692;28;20417;-68
2023/12/03 07:19:15;;;;;;;;;;;;;;;-2.91;100.00;101134.59;5064291;28;20363;-68
2023/12/03 07:21:43;;;;;;;;;;;;;;;-2.91;100.00;101131.16;5057802;28;19924;-68
2023/12/03 07:24:11;;;;;;;;;;;;;;;-2.96;100.00;101140.53;5038673;28;20308;-67
2023/12/03 07:26:38;;;;;;;;;;;;;;;-3.00;100.00;101149.13;5055474;28;19951;-67
2023/12/03 07:29:06;;;;;;;;;;;;;;;-3.04;100.00;101148.19;5059052;28;19928;-68
2023/12/03 07:31:34;;;;;;;;;;;;;;;-3.02;100.00;101145.63;5062371;28;19931;-67
2023/12/03 07:34:06;;;;;;;;;;;;;;;-3.01;100.00;101149.97;5057199;28;20376;-68
2023/12/03 07:36:34;;;;;;;;;;;;;;;-2.99;100.00;101149.13;5059359;28;19928;-68
2023/12/03 07:39:03;;;;;;;;;;;;;;;-3.10;100.00;101135.09;5057346;28;19928;-68
2023/12/03 07:41:31;;;;;;;;;;;;;;;-3.00;100.00;101147.41;5061031;28;19924;-68
2023/12/03 07:43:59;;;;;;;;;;;;;;;-2.95;100.00;101144.88;5053282;28;19931;-68
2023/12/03 07:46:28;;;;;;;;;;;;;;;-2.93;100.00;101148.38;5061615;28;19927;-67
2023/12/03 07:48:55;;;;;;;;;;;;;;;-2.93;100.00;101154.44;5059841;28;20015;-68
2023/12/03 07:51:25;;;;;;;;;;;;;;;-2.92;100.00;101158.78;5060322;28;19924;-69
2023/12/03 07:53:53;;;;;;;;;;;;;;;-2.82;100.00;101159.81;5047350;28;19924;-70
2023/12/03 07:56:20;;;;;;;;;;;;;;;-2.62;100.00;101157.59;5063685;28;20387;-68
2023/12/03 07:58:48;;;;;;;;;;;;;;;-2.58;100.00;101164.59;5075013;28;19927;-67
2023/12/03 08:01:16;;;;;;;;;;;;;;;-2.50;100.00;101169.06;5057341;28;19920;-68
2023/12/03 08:03:44;;;;;;;;;;;;;;;-2.32;100.00;101172.84;5055774;28;19938;-69
2023/12/03 08:06:11;;;;;;;;;;;;;;;-2.22;100.00;101167.00;5042705;28;20036;-69
2023/12/03 08:08:41;;;;;;;;;;;;;;;-2.29;100.00;101165.13;5062843;28;20007;-68
2023/12/03 08:11:08;;;;;;;;;;;;;;;-2.42;100.00;101170.94;5063145;28;19929;-67
2023/12/03 08:13:36;;;;;;;;;;;;;;;-2.46;100.00;101175.19;5052307;28;19978;-68
2023/12/03 08:16:07;;;;;;;;;;;;;;;-2.45;100.00;101176.06;5063016;28;19965;-67
2023/12/03 08:18:37;;;;;;;;;;;;;;;-2.44;100.00;101172.63;5088542;28;19924;-67
2023/12/03 08:21:06;;;;;;;;;;;;;;;-2.43;100.00;101179.56;5059778;28;19925;-68
2023/12/03 08:23:34;;;;;;;;;;;;;;;-2.43;100.00;101177.84;5055595;28;20038;-68
2023/12/03 08:26:06;;;;;;;;;;;;;;;-2.41;100.00;101177.88;5055843;28;19924;-68
2023/12/03 08:28:33;;;;;;;;;;;;;;;-2.33;100.00;101177.16;5057791;28;19934;-67
2023/12/03 08:31:08;;;;;;;;;;;;;;;-2.28;100.00;101185.91;5051972;28;19935;-68
2023/12/03 08:33:35;;;;;;;;;;;;;;;-2.21;100.00;101194.69;5039875;28;19929;-67
2023/12/03 08:36:05;;;;;;;;;;;;;;;-2.18;100.00;101193.00;5040145;28;19931;-68
2023/12/03 08:38:33;;;;;;;;;;;;;;;-2.16;100.00;101200.81;5055167;28;19924;-68
2023/12/03 08:41:01;;;;;;;;;;;;;;;-2.00;100.00;101181.19;5056676;28;19924;-69
2023/12/03 08:43:30;;;;;;;;;;;;;;;-1.99;100.00;101188.13;5053950;28;19951;-67
2023/12/03 08:45:58;;;;;;;;;;;;;;;-2.01;100.00;101185.50;5065715;28;20328;-68
2023/12/03 08:48:25;;;;;;;;;;;;;;;-1.99;100.00;101182.91;5061307;28;20023;-68
2023/12/03 08:50:53;;;;;;;;;;;;;;;-1.75;100.00;101191.13;5057968;28;19995;-67
2023/12/03 08:53:21;;;;;;;;;;;;;;;-1.53;100.00;101184.50;5082884;28;19927;-68
2023/12/03 08:56:15;;;;;;;;;;;;;;;-1.38;100.00;101174.31;5060440;28;19932;-68
2023/12/03 08:59:09;;;;;;;;;;;;;;;-1.21;100.00;101180.63;5050764;28;20521;-68
2023/12/03 09:01:44;;;;;;;;;;;;;;;-1.12;100.00;101183.38;5057116;28;19982;-69
2023/12/03 09:04:44;;;;;;;;;;;;;;;-1.00;100.00;101180.03;5049313;28;20017;-69
2023/12/03 09:10:59;;;;;;;;;;;;;;;-0.97;100.00;101190.50;5060100;28;19970;-68
2023/12/03 09:13:27;;;;;;;;;;;;;;;-0.98;100.00;101195.66;5050566;28;20007;-69
2023/12/03 09:16:18;;;;;;;46.22;21.92;;;;;;;-0.94;100.00;101202.63;5128644;27;20119;-69
2023/12/03 09:18:46;;;;;;;45.72;23.10;;;;;;;-0.96;100.00;101201.75;5092286;28;20070;-67
2023/12/03 09:21:16;;;;;;;47.55;23.80;;;;;;;-1.04;100.00;101205.97;5074908;28;20052;-69
2023/12/03 09:23:44;;;;;;;47.70;23.65;;;;;;;-1.04;100.00;101200.78;5074426;28;20187;-69
2023/12/03 09:26:12;;;;;;;50.10;23.90;;;;;;;-1.04;100.00;101203.38;5075727;28;20515;-68
2023/12/03 09:28:43;;;;;;;47.92;23.25;;;;;;;-1.06;100.00;101199.03;5079043;28;20040;-68
2023/12/03 09:31:12;;;;;;;51.40;24.23;;;;;;;-0.89;100.00;101206.16;5085826;28;20033;-67
2023/12/03 09:33:44;;;;;;;47.70;22.48;;;;;;;-0.82;100.00;101203.69;5075234;28;20044;-67
2023/12/03 09:36:13;;;;;;;48.95;24.08;;;;;;;-0.78;100.00;101210.63;5080215;28;20071;-68
2023/12/03 09:38:41;;;;;;;46.67;22.88;;;;;;;-0.66;100.00;101204.72;5083011;28;20036;-70
2023/12/03 09:41:14;;;;;;;45.72;22.90;;;;;;;-0.61;100.00;101204.75;5081780;28;20471;-68
2023/12/03 09:43:48;;;;;;;45.03;22.83;;;;;;;-0.50;100.00;101209.25;5077236;28;20708;-69
2023/12/03 09:46:17;;;;;;;43.85;22.65;;;;;;;-0.46;100.00;101203.19;5098007;28;20044;-69
2023/12/03 09:48:48;;;;;;;46.58;22.85;;;;;;;-0.58;100.00;101215.19;5068501;28;20052;-67
2023/12/03 09:51:19;;;;;;;46.67;23.48;;;;;;;-0.81;100.00;101200.22;5084272;28;20132;-67
2023/12/03 09:53:49;;;;;;;46.38;23.60;;;;;;;-0.82;100.00;101203.69;5092820;28;20048;-69
2023/12/03 09:56:19;;;;;;;;;;;;;;;-0.90;100.00;101210.50;5092323;28;20044;-68
2023/12/03 09:58:49;;;;;;;46.40;21.73;;;;;;;-0.87;100.00;101207.06;5081887;28;19920;-67
2023/12/03 10:01:18;;;;;;;48.65;22.42;;;;;;;-0.94;100.00;101206.09;5081490;28;20135;-69
2023/12/03 10:03:49;;;;;;;46.25;21.40;;;;;;;-0.90;100.00;101207.00;5060985;28;20052;-69
2023/12/03 10:06:19;;;;;;;43.40;20.70;;;;;;;-0.82;100.00;101201.06;5059145;28;20056;-69
2023/12/03 10:08:49;;;;;;;47.50;22.63;;;;;;;-0.60;100.00;101201.31;5102560;28;20139;-70
2023/12/03 10:11:21;;;;;;;48.75;22.38;;;;;;;-0.48;100.00;101198.84;5088078;28;20044;-68
2023/12/03 10:13:51;;;;;;;42.45;21.67;;;;;;;-0.47;100.00;101191.03;5081804;28;20044;-67
2023/12/03 10:16:20;;;;;;;47.03;22.40;;;;;;;-0.61;100.00;101200.44;5090208;28;20076;-68
2023/12/03 10:18:50;;;;;;;47.15;22.60;;;;;;;-0.54;100.00;101189.25;5087600;28;20147;-70
2023/12/03 10:21:22;;;;;;;47.55;22.10;;;;;;;-0.54;100.00;101188.38;5096354;28;20050;-68
2023/12/03 10:23:58;;;;;;;46.92;21.73;;;;;;;-0.57;100.00;101188.34;5081563;28;20164;-68
2023/12/03 10:26:30;;;;;;;46.55;22.73;;;;;;;-0.83;100.00;101172.44;5099509;28;20036;-69
2023/12/03 10:28:58;;;;;;;45.83;21.92;;;;;;;-0.93;100.00;101179.25;5077402;28;20102;-68
2023/12/03 10:31:32;;;;;;;49.75;21.85;;;;;;;-0.82;100.00;101192.41;5075328;28;20109;-68
2023/12/03 10:34:04;;;;;;;47.70;22.55;;;;;;;-0.65;100.00;101184.78;5070609;28;20054;-68
2023/12/03 10:36:32;;;;;;;46.58;22.55;;;;;;;-0.73;100.00;101172.56;5089589;28;20116;-67
2023/12/03 10:39:00;;;;;;;43.25;21.40;;;;;;;-0.59;100.00;101167.50;5080445;28;20063;-69
2023/12/03 10:41:29;;;;;;;45.78;21.77;;;;;;;-0.41;100.00;101175.50;5088203;28;20104;-69
2023/12/03 10:43:59;;;;;;;44.92;21.98;;;;;;;-0.35;100.00;101172.09;5089114;28;20052;-67
2023/12/03 10:46:28;;;;;;;45.10;22.45;;;;;;;-0.38;100.00;101172.94;5094232;28;20036;-67
2023/12/03 10:48:58;;;;;;;42.38;19.95;;;;;;;-0.23;100.00;101168.72;5071675;28;20052;-68
2023/12/03 10:51:32;;;;;;;45.50;22.33;;;;;;;-0.22;100.00;101167.88;5042235;28;20055;-68
2023/12/03 10:54:00;;;;;;;44.65;21.08;;;;;;;-0.27;100.00;101161.75;5095518;28;20062;-68
2023/12/03 10:56:29;;;;;;;41.25;20.40;;;;;;;-0.28;100.00;101173.00;5096278;28;20049;-69
2023/12/03 10:59:03;;;;;;;42.70;21.77;;;;;;;-0.15;100.00;101161.84;5072037;28;20497;-69
2023/12/03 11:01:32;;;;;;;43.28;21.60;;;;;;;-0.05;100.00;101155.88;5076722;28;20040;-69
2023/12/03 11:04:03;;;;;;;44.10;21.15;;;;;;;-0.02;100.00;101163.72;5093328;28;20113;-66
2023/12/03 11:06:36;;;;;;;42.58;21.05;;;;;;;-0.20;100.00;101159.22;5072282;28;20523;-69
2023/12/03 11:09:09;;;;;;;46.50;20.90;;;;;;;-0.31;100.00;101152.16;5088978;28;20051;-68
2023/12/03 11:11:38;;;;;;;43.10;21.60;;;;;;;-0.47;100.00;101153.75;5091316;28;20554;-68
2023/12/03 11:14:07;;;;;;;40.88;20.40;;;;;;;-0.51;100.00;101157.19;5064049;28;20125;-70
2023/12/03 11:16:46;;;;;;;47.13;21.27;;;;;;;-0.30;100.00;101152.19;5083431;28;20534;-68
2023/12/03 11:19:18;;;;;;;41.70;19.70;;;;;;;-0.20;100.00;101156.63;5091172;28;20054;-70
2023/12/03 11:21:59;;;;;;;42.85;21.52;;;;;;;-0.15;100.00;101143.63;5094246;28;20149;-69
2023/12/03 11:24:44;;;;;;;38.78;19.17;;;;;;;-0.05;100.00;101153.28;5088452;28;20032;-67
2023/12/03 11:27:14;;;;;;;40.85;20.55;;;;;;;-0.14;100.00;101154.06;5081590;28;20623;-68
2023/12/03 11:29:50;;;;;;;44.88;21.17;;;;;;;-0.16;100.00;101153.16;5093039;28;20044;-68
2023/12/03 11:32:18;;;;;;;39.85;19.98;;;;;;;-0.19;100.00;101134.06;5090582;28;20043;-68
2023/12/03 11:35:00;;;;;;;44.53;20.48;;;;;;;-0.14;100.00;101148.84;5086785;28;20676;-67
2023/12/03 11:37:31;;;;;;;40.35;20.98;;;;;;;-0.18;100.00;101147.09;5085160;28;20089;-68
2023/12/03 11:40:08;;;;;;;40.67;19.92;;;;;;;-0.15;100.00;101144.50;5069960;28;20858;-68
2023/12/03 11:42:43;;;;;;;44.15;21.23;;;;;;;-0.11;100.00;101142.81;5050732;28;20070;-67
2023/12/03 11:45:23;;;;;;;42.10;21.02;;;;;;;0.01;100.00;101132.47;5084714;28;20043;-68
2023/12/03 11:48:08;;;;;;;43.13;21.50;;;;;;;0.19;100.00;101131.75;5092790;28;20036;-68
2023/12/03 11:50:39;;;;;;;44.67;21.67;;;;;;;0.00;100.00;101133.38;5070549;28;20093;-68
2023/12/03 11:53:13;;;;;;;47.80;22.33;;;;;;;-0.06;100.00;101128.09;5073626;28;20058;-67
2023/12/03 11:55:42;;;;;;;45.83;22.42;;;;;;;-0.11;100.00;101137.59;5089918;28;20036;-66
2023/12/03 11:58:11;;;;;;;47.45;22.20;;;;;;;-0.13;100.00;101129.78;5085961;28;20128;-68
2023/12/03 12:00:40;;;;;;;43.60;22.00;;;;;;;-0.12;100.00;101128.03;5071569;28;20044;-67
2023/12/03 12:03:09;;;;;;;41.22;21.02;;;;;;;-0.10;100.00;101129.81;5067461;28;20058;-69
2023/12/03 12:05:44;;;;;;;42.70;21.42;;;;;;;0.02;100.00;101120.34;5049112;28;20127;-70
2023/12/03 12:08:18;;;;;;;42.70;21.35;;;;;;;0.04;100.00;101122.09;5085168;28;20048;-70
2023/12/03 12:10:46;;;;;;;44.47;21.58;;;;;;;0.00;100.00;101126.41;5067363;28;20076;-68
2023/12/03 12:13:18;;;;;;;43.72;21.65;;;;;;;-0.02;100.00;101119.47;5082337;28;20101;-67
2023/12/03 12:15:47;;;;;;;44.50;21.75;;;;;;;-0.03;100.00;101125.53;5076729;28;20062;-68
2023/12/03 12:18:19;;;;;;;44.63;21.30;;;;;;;0.05;100.00;101126.44;5068703;28;20056;-68